sensor_id;sensor_type;location;lat;lon;timestamp;P1;durP1;ratioP1;P2;durP2;ratioP2
45338;SDS011;31071;51.478;5.710;2023-12-20T00:00:02;27.77;;;12.18;;
45338;SDS011;31071;51.478;5.710;2023-12-20T00:02:28;33.90;;;12.80;;
45338;SDS011;31071;51.478;5.710;2023-12-20T00:04:54;37.08;;;12.13;;
45338;SDS011;31071;51.478;5.710;2023-12-20T00:07:20;33.88;;;11.38;;
45338;SDS011;31071;51.478;5.710;2023-12-20T00:09:52;35.67;;;11.15;;
45338;SDS011;31071;51.478;5.710;2023-12-20T00:12:20;25.40;;;11.07;;
45338;SDS011;31071;51.478;5.710;2023-12-20T00:14:46;30.10;;;10.60;;
45338;SDS011;31071;51.478;5.710;2023-12-20T00:17:12;28.45;;;10.18;;
45338;SDS011;31071;51.478;5.710;2023-12-20T00:19:44;24.77;;;9.95;;
45338;SDS011;31071;51.478;5.710;2023-12-20T00:22:09;23.50;;;8.75;;
45338;SDS011;31071;51.478;5.710;2023-12-20T00:24:35;31.65;;;8.85;;
45338;SDS011;31071;51.478;5.710;2023-12-20T00:27:01;19.92;;;8.45;;
45338;SDS011;31071;51.478;5.710;2023-12-20T00:29:30;24.45;;;8.65;;
45338;SDS011;31071;51.478;5.710;2023-12-20T00:31:59;28.63;;;8.07;;
45338;SDS011;31071;51.478;5.710;2023-12-20T00:34:25;26.98;;;7.28;;
45338;SDS011;31071;51.478;5.710;2023-12-20T00:36:50;18.80;;;6.43;;
45338;SDS011;31071;51.478;5.710;2023-12-20T00:39:16;21.63;;;6.75;;
45338;SDS011;31071;51.478;5.710;2023-12-20T00:41:41;28.02;;;7.25;;
45338;SDS011;31071;51.478;5.710;2023-12-20T00:44:07;25.60;;;6.47;;
45338;SDS011;31071;51.478;5.710;2023-12-20T00:46:33;21.70;;;5.53;;
45338;SDS011;31071;51.478;5.710;2023-12-20T00:48:59;21.63;;;6.03;;
45338;SDS011;31071;51.478;5.710;2023-12-20T00:51:24;22.45;;;5.45;;
45338;SDS011;31071;51.478;5.710;2023-12-20T00:53:50;25.85;;;4.97;;
45338;SDS011;31071;51.478;5.710;2023-12-20T00:56:19;18.02;;;5.40;;
45338;SDS011;31071;51.478;5.710;2023-12-20T00:58:48;23.42;;;4.75;;
45338;SDS011;31071;51.478;5.710;2023-12-20T01:01:15;24.88;;;4.60;;
45338;SDS011;31071;51.478;5.710;2023-12-20T01:03:40;23.85;;;4.18;;
45338;SDS011;31071;51.478;5.710;2023-12-20T01:06:06;24.88;;;4.65;;
45338;SDS011;31071;51.478;5.710;2023-12-20T01:08:32;24.73;;;4.35;;
45338;SDS011;31071;51.478;5.710;2023-12-20T01:11:00;21.42;;;3.90;;
45338;SDS011;31071;51.478;5.710;2023-12-20T01:13:25;25.80;;;4.07;;
45338;SDS011;31071;51.478;5.710;2023-12-20T01:15:51;24.42;;;4.65;;
45338;SDS011;31071;51.478;5.710;2023-12-20T01:18:17;22.02;;;3.67;;
45338;SDS011;31071;51.478;5.710;2023-12-20T01:20:42;17.27;;;3.90;;
45338;SDS011;31071;51.478;5.710;2023-12-20T01:23:08;20.95;;;4.10;;
45338;SDS011;31071;51.478;5.710;2023-12-20T01:25:37;18.05;;;3.65;;
45338;SDS011;31071;51.478;5.710;2023-12-20T01:28:02;32.58;;;4.03;;
45338;SDS011;31071;51.478;5.710;2023-12-20T01:30:28;25.15;;;4.20;;
45338;SDS011;31071;51.478;5.710;2023-12-20T01:32:54;23.77;;;3.78;;
45338;SDS011;31071;51.478;5.710;2023-12-20T01:35:19;18.67;;;3.58;;
45338;SDS011;31071;51.478;5.710;2023-12-20T01:37:45;28.83;;;3.97;;
45338;SDS011;31071;51.478;5.710;2023-12-20T01:40:11;18.27;;;3.42;;
45338;SDS011;31071;51.478;5.710;2023-12-20T01:42:37;21.65;;;3.70;;
45338;SDS011;31071;51.478;5.710;2023-12-20T01:45:03;15.55;;;3.42;;
45338;SDS011;31071;51.478;5.710;2023-12-20T01:47:29;25.80;;;3.97;;
45338;SDS011;31071;51.478;5.710;2023-12-20T01:49:55;18.50;;;3.13;;
45338;SDS011;31071;51.478;5.710;2023-12-20T01:52:21;23.10;;;3.40;;
45338;SDS011;31071;51.478;5.710;2023-12-20T01:54:48;17.48;;;3.28;;
45338;SDS011;31071;51.478;5.710;2023-12-20T01:57:14;19.98;;;3.47;;
45338;SDS011;31071;51.478;5.710;2023-12-20T01:59:40;17.95;;;3.25;;
45338;SDS011;31071;51.478;5.710;2023-12-20T02:02:06;18.55;;;3.55;;
45338;SDS011;31071;51.478;5.710;2023-12-20T02:04:33;16.30;;;3.20;;
45338;SDS011;31071;51.478;5.710;2023-12-20T02:06:59;14.70;;;3.00;;
45338;SDS011;31071;51.478;5.710;2023-12-20T02:09:27;15.63;;;3.47;;
45338;SDS011;31071;51.478;5.710;2023-12-20T02:11:59;24.00;;;3.53;;
45338;SDS011;31071;51.478;5.710;2023-12-20T02:14:38;23.95;;;4.03;;
45338;SDS011;31071;51.478;5.710;2023-12-20T02:17:04;21.50;;;3.33;;
45338;SDS011;31071;51.478;5.710;2023-12-20T02:19:38;22.42;;;3.88;;
45338;SDS011;31071;51.478;5.710;2023-12-20T02:22:15;22.35;;;3.55;;
45338;SDS011;31071;51.478;5.710;2023-12-20T02:25:05;21.58;;;3.70;;
45338;SDS011;31071;51.478;5.710;2023-12-20T02:27:36;20.42;;;3.72;;
45338;SDS011;31071;51.478;5.710;2023-12-20T02:30:15;20.25;;;3.25;;
45338;SDS011;31071;51.478;5.710;2023-12-20T02:32:58;14.52;;;3.78;;
45338;SDS011;31071;51.478;5.710;2023-12-20T02:35:50;20.63;;;3.80;;
45338;SDS011;31071;51.478;5.710;2023-12-20T02:38:18;19.70;;;3.80;;
45338;SDS011;31071;51.478;5.710;2023-12-20T02:40:44;24.42;;;4.43;;
45338;SDS011;31071;51.478;5.710;2023-12-20T02:43:09;21.15;;;4.13;;
45338;SDS011;31071;51.478;5.710;2023-12-20T02:45:35;19.88;;;3.90;;
45338;SDS011;31071;51.478;5.710;2023-12-20T02:48:01;24.15;;;4.55;;
45338;SDS011;31071;51.478;5.710;2023-12-20T02:50:27;18.00;;;4.30;;
45338;SDS011;31071;51.478;5.710;2023-12-20T02:52:52;19.48;;;3.67;;
45338;SDS011;31071;51.478;5.710;2023-12-20T02:55:18;22.63;;;4.00;;
45338;SDS011;31071;51.478;5.710;2023-12-20T02:57:43;22.20;;;4.22;;
45338;SDS011;31071;51.478;5.710;2023-12-20T03:00:09;16.52;;;4.22;;
45338;SDS011;31071;51.478;5.710;2023-12-20T03:02:35;24.23;;;3.80;;
45338;SDS011;31071;51.478;5.710;2023-12-20T03:05:01;25.58;;;3.78;;
45338;SDS011;31071;51.478;5.710;2023-12-20T03:07:27;19.55;;;4.50;;
45338;SDS011;31071;51.478;5.710;2023-12-20T03:09:53;21.75;;;4.20;;
45338;SDS011;31071;51.478;5.710;2023-12-20T03:12:18;21.00;;;4.68;;
45338;SDS011;31071;51.478;5.710;2023-12-20T03:14:44;23.98;;;4.65;;
45338;SDS011;31071;51.478;5.710;2023-12-20T03:17:10;19.60;;;4.15;;
45338;SDS011;31071;51.478;5.710;2023-12-20T03:19:35;17.42;;;4.00;;
45338;SDS011;31071;51.478;5.710;2023-12-20T03:22:01;23.35;;;5.22;;
45338;SDS011;31071;51.478;5.710;2023-12-20T03:24:27;23.40;;;4.97;;
45338;SDS011;31071;51.478;5.710;2023-12-20T03:26:53;19.77;;;4.20;;
45338;SDS011;31071;51.478;5.710;2023-12-20T03:29:18;21.30;;;4.72;;
45338;SDS011;31071;51.478;5.710;2023-12-20T03:31:44;19.70;;;4.15;;
45338;SDS011;31071;51.478;5.710;2023-12-20T03:34:13;30.00;;;4.30;;
45338;SDS011;31071;51.478;5.710;2023-12-20T03:36:45;24.85;;;4.28;;
45338;SDS011;31071;51.478;5.710;2023-12-20T03:39:20;22.60;;;4.47;;
45338;SDS011;31071;51.478;5.710;2023-12-20T03:41:45;24.08;;;4.90;;
45338;SDS011;31071;51.478;5.710;2023-12-20T03:44:11;26.38;;;3.75;;
45338;SDS011;31071;51.478;5.710;2023-12-20T03:46:36;25.25;;;4.35;;
45338;SDS011;31071;51.478;5.710;2023-12-20T03:49:02;27.15;;;4.88;;
45338;SDS011;31071;51.478;5.710;2023-12-20T03:51:27;27.55;;;4.82;;
45338;SDS011;31071;51.478;5.710;2023-12-20T03:53:53;31.25;;;5.70;;
45338;SDS011;31071;51.478;5.710;2023-12-20T03:56:19;22.85;;;5.82;;
45338;SDS011;31071;51.478;5.710;2023-12-20T03:58:44;19.13;;;5.45;;
45338;SDS011;31071;51.478;5.710;2023-12-20T04:01:10;22.20;;;5.30;;
45338;SDS011;31071;51.478;5.710;2023-12-20T04:03:38;25.98;;;5.80;;
45338;SDS011;31071;51.478;5.710;2023-12-20T04:06:04;27.17;;;6.40;;
45338;SDS011;31071;51.478;5.710;2023-12-20T04:08:30;24.58;;;6.22;;
45338;SDS011;31071;51.478;5.710;2023-12-20T04:10:56;25.27;;;5.55;;
45338;SDS011;31071;51.478;5.710;2023-12-20T04:13:21;22.77;;;6.10;;
45338;SDS011;31071;51.478;5.710;2023-12-20T04:15:47;28.13;;;6.43;;
45338;SDS011;31071;51.478;5.710;2023-12-20T04:18:15;26.98;;;6.70;;
45338;SDS011;31071;51.478;5.710;2023-12-20T04:20:40;19.35;;;6.40;;
45338;SDS011;31071;51.478;5.710;2023-12-20T04:23:06;37.45;;;6.82;;
45338;SDS011;31071;51.478;5.710;2023-12-20T04:25:32;27.60;;;6.07;;
45338;SDS011;31071;51.478;5.710;2023-12-20T04:27:57;27.05;;;6.35;;
45338;SDS011;31071;51.478;5.710;2023-12-20T04:30:23;25.23;;;6.93;;
45338;SDS011;31071;51.478;5.710;2023-12-20T04:32:55;24.30;;;6.50;;
45338;SDS011;31071;51.478;5.710;2023-12-20T04:35:27;21.27;;;7.22;;
45338;SDS011;31071;51.478;5.710;2023-12-20T04:37:53;24.33;;;6.43;;
45338;SDS011;31071;51.478;5.710;2023-12-20T04:40:18;25.48;;;7.78;;
45338;SDS011;31071;51.478;5.710;2023-12-20T04:42:44;21.52;;;6.00;;
45338;SDS011;31071;51.478;5.710;2023-12-20T04:45:10;26.98;;;5.47;;
45338;SDS011;31071;51.478;5.710;2023-12-20T04:47:38;27.65;;;7.35;;
45338;SDS011;31071;51.478;5.710;2023-12-20T04:50:04;22.73;;;6.30;;
45338;SDS011;31071;51.478;5.710;2023-12-20T04:52:30;21.08;;;6.63;;
45338;SDS011;31071;51.478;5.710;2023-12-20T04:54:55;25.92;;;6.03;;
45338;SDS011;31071;51.478;5.710;2023-12-20T04:57:21;25.10;;;6.30;;
45338;SDS011;31071;51.478;5.710;2023-12-20T04:59:47;29.50;;;6.55;;
45338;SDS011;31071;51.478;5.710;2023-12-20T05:02:13;32.13;;;6.53;;
45338;SDS011;31071;51.478;5.710;2023-12-20T05:04:38;26.05;;;6.35;;
45338;SDS011;31071;51.478;5.710;2023-12-20T05:07:04;27.15;;;6.90;;
45338;SDS011;31071;51.478;5.710;2023-12-20T05:09:30;26.67;;;6.32;;
45338;SDS011;31071;51.478;5.710;2023-12-20T05:11:56;23.70;;;6.32;;
45338;SDS011;31071;51.478;5.710;2023-12-20T05:14:22;23.42;;;6.32;;
45338;SDS011;31071;51.478;5.710;2023-12-20T05:16:47;24.70;;;6.32;;
45338;SDS011;31071;51.478;5.710;2023-12-20T05:19:13;32.53;;;7.10;;
45338;SDS011;31071;51.478;5.710;2023-12-20T05:21:39;30.38;;;6.43;;
45338;SDS011;31071;51.478;5.710;2023-12-20T05:24:04;25.38;;;5.93;;
45338;SDS011;31071;51.478;5.710;2023-12-20T05:26:30;23.52;;;6.32;;
45338;SDS011;31071;51.478;5.710;2023-12-20T05:28:56;29.30;;;6.75;;
45338;SDS011;31071;51.478;5.710;2023-12-20T05:31:24;23.65;;;6.28;;
45338;SDS011;31071;51.478;5.710;2023-12-20T05:33:50;30.80;;;7.60;;
45338;SDS011;31071;51.478;5.710;2023-12-20T05:36:16;33.35;;;6.95;;
45338;SDS011;31071;51.478;5.710;2023-12-20T05:38:41;28.58;;;5.88;;
45338;SDS011;31071;51.478;5.710;2023-12-20T05:41:07;28.42;;;7.03;;
45338;SDS011;31071;51.478;5.710;2023-12-20T05:43:33;22.27;;;6.82;;
45338;SDS011;31071;51.478;5.710;2023-12-20T05:45:59;23.63;;;6.88;;
45338;SDS011;31071;51.478;5.710;2023-12-20T05:48:28;26.25;;;6.10;;
45338;SDS011;31071;51.478;5.710;2023-12-20T05:50:54;26.45;;;7.07;;
45338;SDS011;31071;51.478;5.710;2023-12-20T05:53:22;25.83;;;6.75;;
45338;SDS011;31071;51.478;5.710;2023-12-20T05:55:48;21.33;;;6.82;;
45338;SDS011;31071;51.478;5.710;2023-12-20T05:58:14;31.50;;;6.72;;
45338;SDS011;31071;51.478;5.710;2023-12-20T06:00:39;25.88;;;6.15;;
45338;SDS011;31071;51.478;5.710;2023-12-20T06:03:05;27.15;;;6.13;;
45338;SDS011;31071;51.478;5.710;2023-12-20T06:05:31;23.25;;;6.63;;
45338;SDS011;31071;51.478;5.710;2023-12-20T06:07:57;24.15;;;6.88;;
45338;SDS011;31071;51.478;5.710;2023-12-20T06:10:26;32.10;;;7.50;;
45338;SDS011;31071;51.478;5.710;2023-12-20T06:12:52;37.05;;;7.50;;
45338;SDS011;31071;51.478;5.710;2023-12-20T06:15:18;23.73;;;6.60;;
45338;SDS011;31071;51.478;5.710;2023-12-20T06:17:43;29.35;;;7.57;;
45338;SDS011;31071;51.478;5.710;2023-12-20T06:20:09;24.42;;;7.60;;
45338;SDS011;31071;51.478;5.710;2023-12-20T06:22:35;29.20;;;7.70;;
45338;SDS011;31071;51.478;5.710;2023-12-20T06:25:02;30.15;;;7.53;;
45338;SDS011;31071;51.478;5.710;2023-12-20T06:27:28;21.92;;;6.50;;
45338;SDS011;31071;51.478;5.710;2023-12-20T06:29:54;23.83;;;7.25;;
45338;SDS011;31071;51.478;5.710;2023-12-20T06:32:20;34.38;;;7.18;;
45338;SDS011;31071;51.478;5.710;2023-12-20T06:34:45;22.75;;;6.03;;
45338;SDS011;31071;51.478;5.710;2023-12-20T06:44:08;21.13;;;5.25;;
45338;SDS011;31071;51.478;5.710;2023-12-20T06:46:34;24.48;;;6.85;;
45338;SDS011;31071;51.478;5.710;2023-12-20T06:48:59;22.85;;;5.47;;
45338;SDS011;31071;51.478;5.710;2023-12-20T06:51:25;21.65;;;5.10;;
45338;SDS011;31071;51.478;5.710;2023-12-20T06:53:51;23.83;;;5.10;;
45338;SDS011;31071;51.478;5.710;2023-12-20T06:56:17;28.45;;;5.88;;
45338;SDS011;31071;51.478;5.710;2023-12-20T06:58:43;25.98;;;5.63;;
45338;SDS011;31071;51.478;5.710;2023-12-20T07:01:12;22.60;;;6.30;;
45338;SDS011;31071;51.478;5.710;2023-12-20T07:03:38;20.40;;;5.07;;
45338;SDS011;31071;51.478;5.710;2023-12-20T07:06:04;28.63;;;5.78;;
45338;SDS011;31071;51.478;5.710;2023-12-20T07:08:30;20.52;;;5.18;;
45338;SDS011;31071;51.478;5.710;2023-12-20T07:10:56;27.40;;;5.20;;
45338;SDS011;31071;51.478;5.710;2023-12-20T07:13:21;27.52;;;5.20;;
45338;SDS011;31071;51.478;5.710;2023-12-20T07:15:47;26.83;;;5.28;;
45338;SDS011;31071;51.478;5.710;2023-12-20T07:18:14;22.20;;;4.93;;
45338;SDS011;31071;51.478;5.710;2023-12-20T07:20:39;23.75;;;5.40;;
45338;SDS011;31071;51.478;5.710;2023-12-20T07:23:05;26.80;;;5.28;;
45338;SDS011;31071;51.478;5.710;2023-12-20T07:25:31;22.20;;;5.18;;
45338;SDS011;31071;51.478;5.710;2023-12-20T07:27:57;28.17;;;4.90;;
45338;SDS011;31071;51.478;5.710;2023-12-20T07:30:23;28.58;;;5.07;;
45338;SDS011;31071;51.478;5.710;2023-12-20T07:32:49;18.33;;;4.85;;
45338;SDS011;31071;51.478;5.710;2023-12-20T07:35:15;28.65;;;5.03;;
45338;SDS011;31071;51.478;5.710;2023-12-20T07:37:41;20.70;;;4.97;;
45338;SDS011;31071;51.478;5.710;2023-12-20T07:43:33;21.13;;;4.93;;
45338;SDS011;31071;51.478;5.710;2023-12-20T07:46:03;23.08;;;4.38;;
45338;SDS011;31071;51.478;5.710;2023-12-20T07:48:33;30.05;;;5.20;;
45338;SDS011;31071;51.478;5.710;2023-12-20T07:51:00;22.85;;;4.68;;
45338;SDS011;31071;51.478;5.710;2023-12-20T07:53:25;19.67;;;3.88;;
45338;SDS011;31071;51.478;5.710;2023-12-20T07:55:51;24.30;;;5.53;;
45338;SDS011;31071;51.478;5.710;2023-12-20T07:58:17;20.17;;;4.05;;
45338;SDS011;31071;51.478;5.710;2023-12-20T08:00:43;25.80;;;4.85;;
45338;SDS011;31071;51.478;5.710;2023-12-20T08:03:09;29.00;;;4.88;;
45338;SDS011;31071;51.478;5.710;2023-12-20T08:05:34;19.50;;;4.38;;
45338;SDS011;31071;51.478;5.710;2023-12-20T08:08:01;35.70;;;4.57;;
45338;SDS011;31071;51.478;5.710;2023-12-20T08:10:26;19.40;;;5.03;;
45338;SDS011;31071;51.478;5.710;2023-12-20T08:12:58;25.40;;;4.05;;
45338;SDS011;31071;51.478;5.710;2023-12-20T08:15:23;18.95;;;4.53;;
45338;SDS011;31071;51.478;5.710;2023-12-20T08:17:49;26.52;;;4.45;;
45338;SDS011;31071;51.478;5.710;2023-12-20T08:20:16;20.88;;;3.90;;
45338;SDS011;31071;51.478;5.710;2023-12-20T08:22:42;18.55;;;3.85;;
45338;SDS011;31071;51.478;5.710;2023-12-20T08:25:15;21.20;;;4.32;;
45338;SDS011;31071;51.478;5.710;2023-12-20T08:27:49;31.52;;;4.47;;
45338;SDS011;31071;51.478;5.710;2023-12-20T08:30:16;23.10;;;4.03;;
45338;SDS011;31071;51.478;5.710;2023-12-20T08:32:45;26.23;;;4.60;;
45338;SDS011;31071;51.478;5.710;2023-12-20T08:35:11;20.70;;;4.00;;
45338;SDS011;31071;51.478;5.710;2023-12-20T08:37:37;19.77;;;3.85;;
45338;SDS011;31071;51.478;5.710;2023-12-20T08:40:03;22.02;;;4.50;;
45338;SDS011;31071;51.478;5.710;2023-12-20T08:42:29;21.25;;;3.75;;
45338;SDS011;31071;51.478;5.710;2023-12-20T08:44:56;22.77;;;4.18;;
45338;SDS011;31071;51.478;5.710;2023-12-20T08:47:23;25.05;;;4.32;;
45338;SDS011;31071;51.478;5.710;2023-12-20T08:49:49;23.48;;;4.03;;
45338;SDS011;31071;51.478;5.710;2023-12-20T08:52:15;24.10;;;4.18;;
45338;SDS011;31071;51.478;5.710;2023-12-20T08:54:41;20.17;;;4.57;;
45338;SDS011;31071;51.478;5.710;2023-12-20T08:57:06;23.15;;;4.03;;
45338;SDS011;31071;51.478;5.710;2023-12-20T08:59:32;18.02;;;4.28;;
45338;SDS011;31071;51.478;5.710;2023-12-20T09:01:58;22.00;;;4.28;;
45338;SDS011;31071;51.478;5.710;2023-12-20T09:04:24;16.88;;;4.20;;
45338;SDS011;31071;51.478;5.710;2023-12-20T09:06:50;21.58;;;4.82;;
45338;SDS011;31071;51.478;5.710;2023-12-20T09:09:18;18.30;;;4.45;;
45338;SDS011;31071;51.478;5.710;2023-12-20T09:11:44;18.55;;;4.78;;
45338;SDS011;31071;51.478;5.710;2023-12-20T09:14:13;23.75;;;4.63;;
45338;SDS011;31071;51.478;5.710;2023-12-20T09:16:38;26.58;;;4.95;;
45338;SDS011;31071;51.478;5.710;2023-12-20T09:19:04;28.55;;;4.90;;
45338;SDS011;31071;51.478;5.710;2023-12-20T09:21:30;18.95;;;3.83;;
45338;SDS011;31071;51.478;5.710;2023-12-20T09:23:56;23.38;;;4.75;;
45338;SDS011;31071;51.478;5.710;2023-12-20T09:26:21;18.80;;;3.90;;
45338;SDS011;31071;51.478;5.710;2023-12-20T09:28:47;18.92;;;4.18;;
45338;SDS011;31071;51.478;5.710;2023-12-20T09:31:13;22.13;;;4.32;;
45338;SDS011;31071;51.478;5.710;2023-12-20T09:33:39;12.95;;;3.83;;
45338;SDS011;31071;51.478;5.710;2023-12-20T09:36:04;26.42;;;4.70;;
45338;SDS011;31071;51.478;5.710;2023-12-20T09:38:30;17.65;;;4.30;;
45338;SDS011;31071;51.478;5.710;2023-12-20T09:40:56;19.45;;;4.32;;
45338;SDS011;31071;51.478;5.710;2023-12-20T09:43:23;23.05;;;5.03;;
45338;SDS011;31071;51.478;5.710;2023-12-20T09:45:52;19.85;;;4.47;;
45338;SDS011;31071;51.478;5.710;2023-12-20T09:48:19;17.95;;;4.50;;
45338;SDS011;31071;51.478;5.710;2023-12-20T09:50:45;24.73;;;4.78;;
45338;SDS011;31071;51.478;5.710;2023-12-20T09:53:14;15.35;;;4.22;;
45338;SDS011;31071;51.478;5.710;2023-12-20T09:55:41;22.45;;;4.50;;
45338;SDS011;31071;51.478;5.710;2023-12-20T09:58:07;17.77;;;4.10;;
45338;SDS011;31071;51.478;5.710;2023-12-20T10:00:34;21.85;;;4.45;;
45338;SDS011;31071;51.478;5.710;2023-12-20T10:03:00;17.90;;;3.78;;
45338;SDS011;31071;51.478;5.710;2023-12-20T10:05:27;19.75;;;4.30;;
45338;SDS011;31071;51.478;5.710;2023-12-20T10:07:59;17.88;;;4.70;;
45338;SDS011;31071;51.478;5.710;2023-12-20T10:10:33;15.63;;;4.30;;
45338;SDS011;31071;51.478;5.710;2023-12-20T10:13:15;23.80;;;5.40;;
45338;SDS011;31071;51.478;5.710;2023-12-20T10:15:44;17.83;;;3.92;;
45338;SDS011;31071;51.478;5.710;2023-12-20T10:18:14;23.85;;;4.40;;
45338;SDS011;31071;51.478;5.710;2023-12-20T10:20:40;22.52;;;4.60;;
45338;SDS011;31071;51.478;5.710;2023-12-20T10:23:07;26.65;;;5.38;;
45338;SDS011;31071;51.478;5.710;2023-12-20T10:25:33;17.90;;;4.40;;
45338;SDS011;31071;51.478;5.710;2023-12-20T10:28:17;16.05;;;4.13;;
45338;SDS011;31071;51.478;5.710;2023-12-20T10:30:46;24.20;;;5.80;;
45338;SDS011;31071;51.478;5.710;2023-12-20T10:33:12;13.60;;;3.65;;
45338;SDS011;31071;51.478;5.710;2023-12-20T10:35:38;15.55;;;4.35;;
45338;SDS011;31071;51.478;5.710;2023-12-20T10:38:05;18.70;;;4.65;;
45338;SDS011;31071;51.478;5.710;2023-12-20T10:40:34;18.67;;;3.95;;
45338;SDS011;31071;51.478;5.710;2023-12-20T10:43:03;20.65;;;4.57;;
45338;SDS011;31071;51.478;5.710;2023-12-20T10:45:30;17.45;;;4.03;;
45338;SDS011;31071;51.478;5.710;2023-12-20T10:47:55;16.65;;;4.43;;
45338;SDS011;31071;51.478;5.710;2023-12-20T10:50:24;28.77;;;5.22;;
45338;SDS011;31071;51.478;5.710;2023-12-20T10:52:50;28.02;;;5.07;;
45338;SDS011;31071;51.478;5.710;2023-12-20T10:55:20;16.13;;;4.82;;
45338;SDS011;31071;51.478;5.710;2023-12-20T10:57:52;20.60;;;4.32;;
45338;SDS011;31071;51.478;5.710;2023-12-20T11:00:23;16.45;;;4.90;;
45338;SDS011;31071;51.478;5.710;2023-12-20T11:02:49;22.40;;;4.60;;
45338;SDS011;31071;51.478;5.710;2023-12-20T11:05:19;21.38;;;5.18;;
45338;SDS011;31071;51.478;5.710;2023-12-20T11:11:30;20.10;;;4.22;;
45338;SDS011;31071;51.478;5.710;2023-12-20T11:14:03;19.00;;;4.57;;
45338;SDS011;31071;51.478;5.710;2023-12-20T11:16:35;19.70;;;4.72;;
45338;SDS011;31071;51.478;5.710;2023-12-20T11:19:13;16.77;;;4.35;;
45338;SDS011;31071;51.478;5.710;2023-12-20T11:21:51;19.08;;;4.53;;
45338;SDS011;31071;51.478;5.710;2023-12-20T11:24:21;19.40;;;4.45;;
45338;SDS011;31071;51.478;5.710;2023-12-20T11:27:07;23.48;;;4.68;;
45338;SDS011;31071;51.478;5.710;2023-12-20T11:29:57;16.52;;;4.43;;
45338;SDS011;31071;51.478;5.710;2023-12-20T11:32:47;17.38;;;5.40;;
45338;SDS011;31071;51.478;5.710;2023-12-20T11:37:41;22.67;;;4.75;;
45338;SDS011;31071;51.478;5.710;2023-12-20T11:40:15;18.38;;;4.72;;
45338;SDS011;31071;51.478;5.710;2023-12-20T11:42:43;21.42;;;4.90;;
45338;SDS011;31071;51.478;5.710;2023-12-20T11:45:18;21.95;;;5.03;;
45338;SDS011;31071;51.478;5.710;2023-12-20T11:47:47;17.52;;;5.00;;
45338;SDS011;31071;51.478;5.710;2023-12-20T11:50:18;18.27;;;4.93;;
45338;SDS011;31071;51.478;5.710;2023-12-20T11:52:45;23.25;;;5.88;;
45338;SDS011;31071;51.478;5.710;2023-12-20T11:55:14;24.33;;;6.43;;
45338;SDS011;31071;51.478;5.710;2023-12-20T11:57:40;22.40;;;5.28;;
45338;SDS011;31071;51.478;5.710;2023-12-20T12:00:10;25.83;;;6.00;;
45338;SDS011;31071;51.478;5.710;2023-12-20T12:02:36;21.95;;;5.57;;
45338;SDS011;31071;51.478;5.710;2023-12-20T12:05:01;21.77;;;6.10;;
45338;SDS011;31071;51.478;5.710;2023-12-20T12:07:30;20.25;;;5.90;;
45338;SDS011;31071;51.478;5.710;2023-12-20T12:09:55;26.25;;;6.32;;
45338;SDS011;31071;51.478;5.710;2023-12-20T12:12:21;27.00;;;6.30;;
45338;SDS011;31071;51.478;5.710;2023-12-20T12:14:48;25.05;;;6.80;;
45338;SDS011;31071;51.478;5.710;2023-12-20T12:17:14;27.85;;;6.85;;
45338;SDS011;31071;51.478;5.710;2023-12-20T12:19:41;27.02;;;6.75;;
45338;SDS011;31071;51.478;5.710;2023-12-20T12:22:08;21.40;;;6.93;;
45338;SDS011;31071;51.478;5.710;2023-12-20T12:24:45;25.23;;;6.53;;
45338;SDS011;31071;51.478;5.710;2023-12-20T12:27:15;24.83;;;7.00;;
45338;SDS011;31071;51.478;5.710;2023-12-20T12:29:43;28.00;;;7.97;;
45338;SDS011;31071;51.478;5.710;2023-12-20T12:35:02;27.25;;;9.05;;
45338;SDS011;31071;51.478;5.710;2023-12-20T12:37:29;30.27;;;9.77;;
45338;SDS011;31071;51.478;5.710;2023-12-20T12:39:54;24.25;;;9.43;;
45338;SDS011;31071;51.478;5.710;2023-12-20T12:42:20;29.13;;;9.65;;
45338;SDS011;31071;51.478;5.710;2023-12-20T12:44:47;34.35;;;8.75;;
45338;SDS011;31071;51.478;5.710;2023-12-20T12:47:12;32.95;;;9.60;;
45338;SDS011;31071;51.478;5.710;2023-12-20T12:49:40;24.23;;;8.02;;
45338;SDS011;31071;51.478;5.710;2023-12-20T12:52:05;31.25;;;10.00;;
45338;SDS011;31071;51.478;5.710;2023-12-20T12:54:31;22.77;;;7.95;;
45338;SDS011;31071;51.478;5.710;2023-12-20T12:56:57;28.23;;;9.23;;
45338;SDS011;31071;51.478;5.710;2023-12-20T12:59:23;35.35;;;8.95;;
45338;SDS011;31071;51.478;5.710;2023-12-20T13:01:49;22.73;;;9.10;;
45338;SDS011;31071;51.478;5.710;2023-12-20T13:04:14;31.80;;;10.23;;
45338;SDS011;31071;51.478;5.710;2023-12-20T13:06:40;31.75;;;10.35;;
45338;SDS011;31071;51.478;5.710;2023-12-20T13:09:07;29.35;;;9.90;;
45338;SDS011;31071;51.478;5.710;2023-12-20T13:11:34;27.08;;;9.55;;
45338;SDS011;31071;51.478;5.710;2023-12-20T13:14:01;28.77;;;10.85;;
45338;SDS011;31071;51.478;5.710;2023-12-20T13:16:28;29.95;;;10.70;;
45338;SDS011;31071;51.478;5.710;2023-12-20T13:18:54;25.83;;;10.05;;
45338;SDS011;31071;51.478;5.710;2023-12-20T13:21:21;25.45;;;10.35;;
45338;SDS011;31071;51.478;5.710;2023-12-20T13:23:46;29.20;;;10.55;;
45338;SDS011;31071;51.478;5.710;2023-12-20T13:26:12;22.05;;;9.88;;
45338;SDS011;31071;51.478;5.710;2023-12-20T13:28:37;28.40;;;10.98;;
45338;SDS011;31071;51.478;5.710;2023-12-20T13:31:03;29.48;;;10.73;;
45338;SDS011;31071;51.478;5.710;2023-12-20T13:33:29;24.17;;;10.75;;
45338;SDS011;31071;51.478;5.710;2023-12-20T13:35:55;33.50;;;9.68;;
45338;SDS011;31071;51.478;5.710;2023-12-20T13:38:23;31.42;;;10.38;;
45338;SDS011;31071;51.478;5.710;2023-12-20T13:40:49;24.48;;;9.23;;
45338;SDS011;31071;51.478;5.710;2023-12-20T13:43:14;26.65;;;9.13;;
45338;SDS011;31071;51.478;5.710;2023-12-20T13:45:45;24.02;;;9.70;;
45338;SDS011;31071;51.478;5.710;2023-12-20T13:48:11;18.08;;;8.63;;
45338;SDS011;31071;51.478;5.710;2023-12-20T13:50:37;24.17;;;8.50;;
45338;SDS011;31071;51.478;5.710;2023-12-20T13:53:03;30.60;;;10.35;;
45338;SDS011;31071;51.478;5.710;2023-12-20T13:55:29;26.02;;;8.70;;
45338;SDS011;31071;51.478;5.710;2023-12-20T13:57:55;25.92;;;8.32;;
45338;SDS011;31071;51.478;5.710;2023-12-20T14:00:21;23.30;;;8.30;;
45338;SDS011;31071;51.478;5.710;2023-12-20T14:02:48;24.27;;;8.40;;
45338;SDS011;31071;51.478;5.710;2023-12-20T14:05:14;23.23;;;8.27;;
45338;SDS011;31071;51.478;5.710;2023-12-20T14:07:42;25.08;;;8.48;;
45338;SDS011;31071;51.478;5.710;2023-12-20T14:10:12;23.80;;;8.05;;
45338;SDS011;31071;51.478;5.710;2023-12-20T14:12:41;24.70;;;8.02;;
45338;SDS011;31071;51.478;5.710;2023-12-20T14:15:07;23.23;;;7.45;;
45338;SDS011;31071;51.478;5.710;2023-12-20T14:17:38;23.23;;;7.55;;
45338;SDS011;31071;51.478;5.710;2023-12-20T14:20:05;22.60;;;7.78;;
45338;SDS011;31071;51.478;5.710;2023-12-20T14:22:32;24.38;;;7.85;;
45338;SDS011;31071;51.478;5.710;2023-12-20T14:27:57;28.20;;;7.07;;
45338;SDS011;31071;51.478;5.710;2023-12-20T14:30:23;21.60;;;6.72;;
45338;SDS011;31071;51.478;5.710;2023-12-20T14:32:53;27.00;;;7.45;;
45338;SDS011;31071;51.478;5.710;2023-12-20T14:35:27;20.20;;;7.55;;
45338;SDS011;31071;51.478;5.710;2023-12-20T14:37:53;22.33;;;6.72;;
45338;SDS011;31071;51.478;5.710;2023-12-20T14:40:19;19.50;;;7.18;;
45338;SDS011;31071;51.478;5.710;2023-12-20T14:42:45;26.20;;;7.57;;
45338;SDS011;31071;51.478;5.710;2023-12-20T14:45:11;24.98;;;7.63;;
45338;SDS011;31071;51.478;5.710;2023-12-20T14:47:41;22.73;;;7.57;;
45338;SDS011;31071;51.478;5.710;2023-12-20T14:50:10;21.85;;;7.25;;
45338;SDS011;31071;51.478;5.710;2023-12-20T14:52:51;18.27;;;7.05;;
45338;SDS011;31071;51.478;5.710;2023-12-20T14:55:20;20.80;;;6.97;;